createdAt,value
2022-09-23T00:01:25.379Z,12.93
2022-09-23T00:03:52.495Z,12.68
2022-09-23T00:06:24.088Z,13.27
2022-09-23T00:08:54.320Z,11.95
2022-09-23T00:11:25.957Z,12.88
2022-09-23T00:13:57.582Z,12.18
2022-09-23T00:16:32.685Z,12.45
2022-09-23T00:19:04.337Z,12.93
2022-09-23T00:21:31.505Z,14.07
2022-09-23T00:23:58.777Z,14.23
2022-09-23T00:26:25.891Z,14.38
2022-09-23T00:28:53.192Z,12.82
2022-09-23T00:31:27.372Z,12.43
2022-09-23T00:34:01.769Z,13.20
2022-09-23T00:36:33.413Z,13.73
2022-09-23T00:39:00.654Z,13.70
2022-09-23T00:41:28.080Z,13.40
2022-09-23T00:44:23.426Z,14.63
2022-09-23T00:46:50.732Z,14.50
2022-09-23T00:49:30.357Z,16.52
2022-09-23T00:52:09.211Z,16.85
2022-09-23T00:54:36.261Z,18.42
2022-09-23T00:57:05.760Z,18.45
2022-09-23T00:59:33.055Z,19.80
2022-09-23T01:02:02.353Z,20.83
2022-09-23T01:04:30.605Z,22.05
2022-09-23T01:06:57.577Z,24.08
2022-09-23T01:09:27.522Z,24.75
2022-09-23T01:12:39.804Z,25.67
2022-09-23T01:15:24.216Z,25.98
2022-09-23T01:18:08.867Z,28.00
2022-09-23T01:21:08.322Z,27.42
2022-09-23T01:24:08.322Z,26.77
2022-09-23T01:27:01.024Z,25.70
2022-09-23T01:29:56.081Z,25.02
2022-09-23T01:32:49.456Z,25.67
2022-09-23T01:36:13.006Z,25.27
2022-09-23T01:39:11.920Z,25.70
2022-09-23T01:41:59.783Z,25.50
2022-09-23T01:44:56.587Z,24.48
2022-09-23T01:47:44.281Z,22.77
2022-09-23T01:50:44.837Z,22.55
2022-09-23T01:53:20.998Z,23.25
2022-09-23T01:56:00.349Z,22.15
2022-09-23T01:58:53.945Z,21.40
2022-09-23T02:01:54.082Z,21.05
2022-09-23T02:04:36.754Z,19.45
2022-09-23T02:07:22.050Z,18.83
2022-09-23T02:09:59.385Z,17.67
2022-09-23T02:12:30.399Z,16.02
2022-09-23T02:15:08.687Z,14.93
2022-09-23T02:17:55.714Z,16.45
2022-09-23T02:20:29.741Z,15.85
2022-09-23T02:23:36.155Z,13.52
2022-09-23T02:26:34.585Z,14.25
2022-09-23T02:29:08.142Z,12.77
2022-09-23T02:31:45.650Z,12.10
2022-09-23T02:34:53.133Z,12.25
2022-09-23T02:37:44.046Z,11.15
2022-09-23T02:40:52.493Z,10.07
2022-09-23T02:43:36.251Z,10.55
2022-09-23T02:46:04.981Z,9.20
2022-09-23T02:49:00.802Z,9.05
2022-09-23T02:51:38.253Z,8.70
2022-09-23T02:54:10.683Z,8.77
2022-09-23T02:56:38.005Z,8.73
2022-09-23T02:59:09.563Z,9.10
2022-09-23T03:02:02.177Z,6.63
2022-09-23T03:07:57.498Z,8.93
2022-09-23T03:11:04.422Z,7.85
2022-09-23T03:13:42.638Z,9.23
2022-09-23T03:16:48.027Z,8.18
2022-09-23T03:20:04.561Z,8.10
2022-09-23T03:22:46.981Z,8.43
2022-09-23T03:27:45.796Z,8.45
2022-09-23T03:30:13.821Z,8.48
2022-09-23T03:32:47.985Z,8.77
2022-09-23T03:35:15.004Z,9.13
2022-09-23T03:38:01.050Z,8.98
2022-09-23T03:40:33.655Z,9.63
2022-09-23T03:43:04.535Z,8.90
2022-09-23T03:45:36.653Z,8.85
2022-09-23T03:48:04.486Z,8.88
2022-09-23T03:50:31.590Z,8.80
2022-09-23T03:52:59.445Z,8.48
2022-09-23T03:55:26.470Z,9.27
2022-09-23T03:57:53.718Z,9.20
2022-09-23T04:00:20.779Z,8.98
2022-09-23T04:02:48.428Z,9.48
2022-09-23T04:05:15.568Z,9.68
2022-09-23T04:07:42.665Z,10.48
2022-09-23T04:10:10.989Z,9.40
2022-09-23T04:12:44.063Z,9.48
2022-09-23T04:15:11.322Z,10.80
2022-09-23T04:17:38.540Z,9.77
2022-09-23T04:20:06.437Z,10.05
2022-09-23T04:22:35.167Z,8.80
2022-09-23T04:25:02.479Z,10.27
2022-09-23T04:27:31.292Z,9.05
2022-09-23T04:30:01.422Z,10.35
2022-09-23T04:32:28.438Z,10.10
2022-09-23T04:34:55.398Z,10.20
2022-09-23T04:37:22.477Z,10.25
2022-09-23T04:39:49.443Z,10.05
2022-09-23T04:42:16.451Z,9.45
2022-09-23T04:44:43.418Z,10.07
2022-09-23T04:47:10.423Z,9.57
2022-09-23T04:49:38.421Z,9.63
2022-09-23T04:52:05.798Z,10.07
2022-09-23T04:54:33.024Z,9.05
2022-09-23T04:57:00.100Z,9.48
2022-09-23T04:59:27.113Z,9.75
2022-09-23T05:01:55.513Z,9.68
2022-09-23T05:04:22.929Z,9.65
2022-09-23T05:06:49.960Z,9.52
2022-09-23T05:09:18.221Z,9.43
2022-09-23T05:11:46.035Z,9.18
2022-09-23T05:14:13.500Z,8.93
2022-09-23T05:16:40.928Z,8.38
2022-09-23T05:19:08.356Z,8.18
2022-09-23T05:21:36.694Z,8.23
2022-09-23T05:24:03.927Z,7.80
2022-09-23T05:26:32.622Z,7.65
2022-09-23T05:29:00.423Z,7.93
2022-09-23T05:31:30.426Z,7.50
2022-09-23T05:34:04.930Z,7.95
2022-09-23T05:36:38.805Z,7.18
2022-09-23T05:39:08.251Z,7.43
2022-09-23T05:41:36.599Z,7.93
2022-09-23T05:44:04.255Z,7.47
2022-09-23T05:46:32.124Z,7.68
2022-09-23T05:49:08.163Z,8.00
2022-09-23T05:51:35.972Z,7.60
2022-09-23T05:54:08.447Z,7.63
2022-09-23T05:56:37.354Z,7.88
2022-09-23T05:59:06.437Z,7.72
2022-09-23T06:01:36.797Z,8.23
2022-09-23T06:04:07.831Z,8.57
2022-09-23T06:06:41.592Z,7.93
2022-09-23T06:09:13.565Z,7.53
2022-09-23T06:11:41.670Z,7.72
2022-09-23T06:14:14.685Z,7.45
2022-09-23T06:16:41.788Z,8.32
2022-09-23T06:19:10.162Z,8.43
2022-09-23T06:21:39.599Z,7.75
2022-09-23T06:24:08.166Z,8.57
2022-09-23T06:26:37.990Z,8.88
2022-09-23T06:29:12.260Z,9.18
2022-09-23T06:31:41.249Z,8.25
2022-09-23T06:34:13.459Z,8.50
2022-09-23T06:36:45.338Z,8.23
2022-09-23T06:39:15.137Z,8.07
2022-09-23T06:41:43.371Z,8.40
2022-09-23T06:44:10.519Z,7.68
2022-09-23T06:46:37.688Z,9.00
2022-09-23T06:49:04.714Z,8.68
2022-09-23T06:51:32.136Z,9.13
2022-09-23T06:53:59.128Z,8.43
2022-09-23T06:56:26.263Z,9.07
2022-09-23T06:58:53.501Z,10.02
2022-09-23T07:01:20.737Z,10.88
2022-09-23T07:03:48.648Z,9.38
2022-09-23T07:06:17.265Z,9.77
2022-09-23T07:08:47.255Z,10.98
2022-09-23T07:11:15.976Z,10.65
2022-09-23T07:13:43.663Z,11.00
2022-09-23T07:16:11.784Z,10.38
2022-09-23T07:18:39.777Z,10.02
2022-09-23T07:21:17.040Z,9.80
2022-09-23T07:23:46.982Z,10.27
2022-09-23T07:26:23.215Z,9.27
2022-09-23T07:29:04.870Z,9.90
2022-09-23T07:31:39.946Z,9.45
2022-09-23T07:34:11.528Z,9.68
2022-09-23T07:36:40.838Z,9.52
2022-09-23T07:39:12.130Z,9.25
2022-09-23T07:41:39.847Z,8.43
2022-09-23T07:44:07.033Z,9.43
2022-09-23T07:46:36.513Z,8.95
2022-09-23T07:49:05.467Z,8.93
2022-09-23T07:51:39.334Z,8.02
2022-09-23T07:54:12.159Z,7.97
2022-09-23T07:56:41.826Z,6.32
2022-09-23T07:59:18.203Z,5.03
2022-09-23T08:01:52.725Z,3.55
2022-09-23T08:04:23.388Z,3.90
2022-09-23T08:07:00.835Z,3.45
2022-09-23T08:09:43.605Z,3.88
2022-09-23T08:12:23.113Z,4.47
2022-09-23T08:14:50.106Z,3.97
2022-09-23T08:17:17.072Z,5.00
2022-09-23T08:19:44.089Z,5.07
2022-09-23T08:22:12.403Z,4.78
2022-09-23T08:24:39.561Z,4.03
2022-09-23T08:27:06.558Z,3.63
2022-09-23T08:29:33.891Z,2.60
2022-09-23T08:32:01.425Z,2.83
2022-09-23T08:34:28.817Z,2.60
2022-09-23T08:36:55.856Z,2.40
2022-09-23T08:39:23.599Z,2.88
2022-09-23T08:41:59.114Z,3.50
2022-09-23T08:44:57.272Z,3.53
2022-09-23T08:47:45.842Z,2.47
2022-09-23T08:50:27.146Z,1.95
2022-09-23T08:53:02.787Z,1.65
2022-09-23T08:55:46.776Z,1.50
2022-09-23T08:58:26.805Z,1.00
2022-09-23T09:01:16.471Z,0.95
2022-09-23T09:03:48.087Z,1.52
2022-09-23T09:09:56.807Z,1.20
2022-09-23T09:12:47.234Z,1.73
2022-09-23T09:15:24.955Z,1.52
2022-09-23T09:18:13.986Z,1.02
2022-09-23T09:21:42.477Z,1.30
2022-09-23T09:24:21.847Z,1.40
2022-09-23T09:26:48.893Z,0.90
2022-09-23T09:29:35.485Z,0.80
2022-09-23T09:32:34.031Z,0.90
2022-09-23T09:35:21.417Z,0.73
2022-09-23T09:37:48.544Z,0.80
2022-09-23T09:40:20.790Z,1.00
2022-09-23T09:42:50.327Z,0.85
2022-09-23T09:46:08.377Z,0.90
2022-09-23T09:48:53.722Z,0.75
2022-09-23T09:51:24.275Z,0.50
2022-09-23T09:53:56.111Z,0.70
2022-09-23T09:56:34.545Z,0.70
2022-09-23T09:59:16.837Z,0.68
2022-09-23T10:01:43.896Z,0.82
2022-09-23T10:04:35.029Z,0.60
2022-09-23T10:07:14.403Z,0.70
2022-09-23T10:09:50.211Z,0.60
2022-09-23T10:12:21.468Z,0.70
2022-09-23T10:14:58.868Z,0.47
2022-09-23T10:17:34.110Z,0.60
2022-09-23T10:20:08.255Z,0.60
2022-09-23T10:22:42.552Z,0.47
2022-09-23T10:25:19.270Z,0.40
2022-09-23T10:27:46.933Z,0.30
2022-09-23T10:30:25.792Z,0.80
2022-09-23T10:32:58.214Z,0.70
2022-09-23T10:35:26.672Z,0.40
2022-09-23T10:37:55.387Z,0.43
2022-09-23T10:41:02.762Z,0.60
2022-09-23T10:44:45.826Z,0.32
2022-09-23T10:48:01.403Z,0.40
2022-09-23T10:50:48.654Z,0.30
2022-09-23T10:53:29.052Z,0.45
2022-09-23T10:56:28.832Z,0.50
2022-09-23T10:59:27.995Z,0.80
2022-09-23T11:02:36.006Z,0.47
2022-09-23T11:05:26.522Z,1.13
2022-09-23T11:10:46.512Z,0.90
2022-09-23T11:13:30.044Z,0.70
2022-09-23T11:18:59.676Z,0.68
2022-09-23T11:21:51.890Z,0.60
2022-09-23T11:24:50.177Z,0.60
2022-09-23T11:27:59.516Z,0.68
2022-09-23T11:31:04.368Z,0.70
2022-09-23T11:34:01.731Z,0.50
2022-09-23T11:36:42.075Z,0.63
2022-09-23T11:39:23.294Z,0.82
2022-09-23T11:42:04.812Z,0.47
2022-09-23T11:44:45.280Z,0.52
2022-09-23T11:47:54.388Z,0.73
2022-09-23T11:50:30.314Z,1.13
2022-09-23T11:53:23.795Z,0.60
2022-09-23T11:56:05.611Z,0.70
2022-09-23T11:58:49.446Z,0.75
2022-09-23T12:01:37.000Z,0.60
2022-09-23T12:04:53.287Z,0.70
2022-09-23T12:07:39.367Z,0.50
2022-09-23T12:10:09.351Z,0.50
2022-09-23T12:13:05.013Z,0.65
2022-09-23T12:16:31.578Z,0.63
2022-09-23T12:19:37.180Z,0.70
2022-09-23T12:22:29.069Z,0.57
2022-09-23T12:28:23.473Z,0.77
2022-09-23T12:30:54.650Z,0.52
2022-09-23T12:33:30.372Z,0.60
2022-09-23T12:36:07.969Z,0.57
2022-09-23T12:38:49.507Z,0.70
2022-09-23T12:41:37.682Z,0.43
2022-09-23T12:44:42.259Z,0.50
2022-09-23T12:47:15.310Z,0.65
2022-09-23T12:49:43.739Z,0.52
2022-09-23T12:52:16.707Z,0.57
2022-09-23T12:54:49.915Z,0.60
2022-09-23T12:57:35.132Z,0.70
2022-09-23T13:00:13.961Z,0.70
2022-09-23T13:03:21.658Z,0.75
2022-09-23T13:06:12.119Z,0.60
2022-09-23T13:08:42.256Z,0.65
2022-09-23T13:11:31.879Z,0.57
2022-09-23T13:14:04.799Z,0.63
2022-09-23T13:16:46.738Z,0.70
2022-09-23T13:22:11.476Z,0.55
2022-09-23T13:24:54.164Z,0.60
2022-09-23T13:27:24.494Z,0.68
2022-09-23T13:29:59.601Z,0.70
2022-09-23T13:32:35.632Z,0.60
2022-09-23T13:35:06.992Z,0.43
2022-09-23T13:37:48.898Z,0.60
2022-09-23T13:43:01.782Z,0.68
2022-09-23T13:45:33.957Z,0.65
2022-09-23T13:48:10.623Z,0.60
2022-09-23T13:50:48.652Z,0.40
2022-09-23T13:53:28.424Z,0.70
2022-09-23T13:56:17.912Z,0.70
2022-09-23T13:58:45.099Z,0.50
2022-09-23T14:01:34.832Z,0.50
2022-09-23T14:04:02.772Z,0.40
2022-09-23T14:06:40.980Z,0.60
2022-09-23T14:09:08.168Z,0.40
2022-09-23T14:11:35.636Z,0.70
2022-09-23T14:14:07.903Z,0.70
2022-09-23T14:16:40.876Z,0.50
2022-09-23T14:19:19.823Z,0.50
2022-09-23T14:21:55.759Z,0.60
2022-09-23T14:24:30.900Z,0.60
2022-09-23T14:27:06.650Z,0.73
2022-09-23T14:29:38.301Z,0.80
2022-09-23T14:32:18.823Z,0.52
2022-09-23T14:35:00.965Z,0.60
2022-09-23T14:40:50.835Z,0.90
2022-09-23T14:43:28.240Z,0.65
2022-09-23T14:45:58.564Z,0.77
2022-09-23T14:48:31.500Z,0.82
2022-09-23T14:51:14.473Z,0.80
2022-09-23T14:53:48.800Z,1.00
2022-09-23T14:58:55.199Z,1.20
2022-09-23T15:01:31.449Z,1.17
2022-09-23T15:04:21.559Z,1.20
2022-09-23T15:06:58.806Z,1.30
2022-09-23T15:09:45.785Z,1.30
2022-09-23T15:12:21.230Z,0.98
2022-09-23T15:14:56.897Z,1.27
2022-09-23T15:17:23.860Z,1.25
2022-09-23T15:19:58.447Z,1.17
2022-09-23T15:22:26.615Z,1.33
2022-09-23T15:25:10.842Z,1.30
2022-09-23T15:27:37.845Z,1.48
2022-09-23T15:30:17.109Z,1.40
2022-09-23T15:32:45.594Z,1.40
2022-09-23T15:35:19.206Z,1.20
2022-09-23T15:37:51.826Z,1.35
2022-09-23T15:40:31.314Z,1.40
2022-09-23T15:43:01.437Z,1.27
2022-09-23T15:45:36.390Z,1.45
2022-09-23T15:48:11.947Z,1.58
2022-09-23T15:50:42.549Z,1.50
2022-09-23T15:53:26.224Z,1.50
2022-09-23T15:55:54.122Z,1.50
2022-09-23T15:58:22.606Z,1.65
2022-09-23T16:00:55.909Z,2.72
2022-09-23T16:03:33.690Z,2.00
2022-09-23T16:06:03.239Z,3.35
2022-09-23T16:08:32.937Z,2.15
2022-09-23T16:11:02.977Z,2.30
2022-09-23T16:13:29.947Z,2.20
2022-09-23T16:15:57.095Z,2.30
2022-09-23T16:18:26.590Z,1.90
2022-09-23T16:20:54.741Z,2.47
2022-09-23T16:23:39.932Z,2.40
2022-09-23T16:26:24.329Z,2.72
2022-09-23T16:28:54.198Z,3.28
2022-09-23T16:31:25.497Z,3.72
2022-09-23T16:33:53.855Z,3.47
2022-09-23T16:36:23.017Z,3.67
2022-09-23T16:38:55.523Z,3.60
2022-09-23T16:41:33.901Z,3.55
2022-09-23T16:44:05.483Z,3.72
2022-09-23T16:46:33.266Z,3.45
